Hlavní strana
METAR-TAF:

METAR-TAF

Letiště :

Džíbútí, Džibutsko

zeměpisná šířka: 11-33N, zeměpisná délka: 043-10E, výška: 49 m

Aktuální stav počasí

Zpráva byla vytvořena před 34 minutami, v 09:00 UTC
Východoseverovýchodní vítr 11 kt
Teplota 35°C
Vlhkost vzduchu 60%
Tlak 1008 hPa
Viditelnost 10 km a více
Skoro jasno ve výšce 2300 ft

METAR: HDAM 200900Z 07011KT 9999 FEW023 35/26 Q1008

Čas: 12:34 (09:34 UTC)

Předpověď počasí

Zpráva byla vytvořena před 4 hodinami a 34 minutami, v 05:00 UTC
Předpověď platná od 20 v 06 UTC do 21 v 06 UTC
Východní vítr 10 kt
Viditelnost 10 km a více
Polojasno ve výšce 2300 ft
Změna
od 20 v 15 UTC do 20 v 18 UTC
vítr z různých směrů 3 kt
Viditelnost 10 km a více
Žádná oblačnost pod 1500 m, nevyskytují se cumulonimby.
Změna
od 21 v 00 UTC do 21 v 06 UTC
Severní vítr kt
Skoro jasno ve výšce 2300 ft

TAF: HDAM 200500Z 2006/2106 08010KT 9999 SCT023 BECMG 2015/2018 VRB03KT CAVOK BECMG 2100/2106 00000KT FEW023

Stav a předpovědi počasí z více než 4 000 letišť (zprávy METAR a TAF).

Červené a žluté tečky na mapě představují dostupné meteorologické stanice.

Když kurzor umístíte na tečku, zobrazí se název stanice.

Pak kliknutím zobrazíte stav a předpověď počasí.

Chcete-li změnit mapu, kliknutím na zelené tlačítko se znaménkem +mapu přiblížíte, kliknutím na zelené tlačítko se znaménkem – mapu oddálíte a kliknutím na zelené šipky přejdete na sousední mapy.


METAR-TAF: